NORTHEAST SUFFOLK  -  Frost Advisory Frost Advisory        NORTHWEST SUFFOLK  -  Frost Advisory Frost Advisory        SOUTHEAST SUFFOLK  -  Frost Advisory Frost Advisory        SOUTHWEST SUFFOLK  -  Frost Advisory Frost Advisory      

Active alerts

Northwest Suffolk
  Details for Northwest Suffolk Frost Advisory
Southwest Suffolk
  Details for Southwest Suffolk Frost Advisory
Northeast Suffolk
  Details for Northeast Suffolk Frost Advisory
Southeast Suffolk
  Details for Southeast Suffolk Frost Advisory


WXM80 ListenWXM80 Stop

You find our weather info also at:

UK Metoffice

WeatherCloud

Weather Underground

Northeastern Weather Network

AWEKAS

Citizen Weather Observer Program (CWOP)

HAMweather, WeatherForYou, PWS Weather


Weather Underground History page Text

Daily Summary for October 4, 2017 Units:  Both    English   Metric
« Previous Day
Next Day »
Daily Weekly Monthly Yearly Custom
  High: Low: Average:
Temperature: 78.4 °F /  25.8 °C 50.1 °F /  10.1 °C 62.2 °F /  16.8 °C
Dew Point: 62.7 °F /  17.1 °C 48.2 °F /  9 °C 56.5 °F /  13.6 °C
Humidity: 97 % 54 % 84 %
Wind Speed: 7.0 mph /  11.3 km/h - 1.4 mph /  2.3 km/h
Wind Gust: 12.0 mph /  19.3 km/h - -
Wind:- - SW
Pressure: 30.51 in /  1033.1 hPa 30.03 in /  1016.8 hPa -
Precipitation: 0.00 in /  0 mm    
Historical Graphs
 
 
Tabular Data for October 4, 2017
Time Temperature Dew Point Pressure Wind Wind Speed Wind Gust Humidity Rainfall Rate (Hourly)
00:02 50.1 °F /  10.1 °C 48.2 °F /  9 °C 30.51 in /  1033.1 hPa Calm     93 % 0.00 in /  0 mm
00:07 50.2 °F /  10.1 °C 48.3 °F /  9.1 °C 30.51 in /  1033.1 hPa Calm     93 % 0.00 in /  0 mm
00:12 50.3 °F /  10.2 °C 48.4 °F /  9.1 °C 30.51 in /  1033.1 hPa Calm     93 % 0.00 in /  0 mm
00:17 50.4 °F /  10.2 °C 48.5 °F /  9.2 °C 30.51 in /  1033.1 hPa Calm     93 % 0.00 in /  0 mm
00:22 50.5 °F /  10.3 °C 48.6 °F /  9.2 °C 30.51 in /  1033.1 hPa Calm     93 % 0.00 in /  0 mm
00:27 50.6 °F /  10.3 °C 48.9 °F /  9.4 °C 30.51 in /  1033.1 hPa Calm     94 % 0.00 in /  0 mm
00:32 50.6 °F /  10.3 °C 48.9 °F /  9.4 °C 30.51 in /  1033.1 hPa Calm     94 % 0.00 in /  0 mm
00:37 50.7 °F /  10.4 °C 49.0 °F /  9.4 °C 30.50 in /  1032.7 hPa Calm     94 % 0.00 in /  0 mm
00:42 50.7 °F /  10.4 °C 49.0 °F /  9.4 °C 30.50 in /  1032.7 hPa Calm     94 % 0.00 in /  0 mm
00:47 50.8 °F /  10.4 °C 49.1 °F /  9.5 °C 30.50 in /  1032.7 hPa Calm     94 % 0.00 in /  0 mm
00:53 50.7 °F /  10.4 °C 49.0 °F /  9.4 °C 30.50 in /  1032.7 hPa Calm     94 % 0.00 in /  0 mm
00:58 50.8 °F /  10.4 °C 49.1 °F /  9.5 °C 30.50 in /  1032.7 hPa Calm     94 % 0.00 in /  0 mm
01:03 50.8 °F /  10.4 °C 49.1 °F /  9.5 °C 30.50 in /  1032.7 hPa Calm     94 % 0.00 in /  0 mm
01:08 50.7 °F /  10.4 °C 49.0 °F /  9.4 °C 30.50 in /  1032.7 hPa Calm     94 % 0.00 in /  0 mm
01:13 50.7 °F /  10.4 °C 49.0 °F /  9.4 °C 30.50 in /  1032.7 hPa Calm     94 % 0.00 in /  0 mm
01:18 50.7 °F /  10.4 °C 49.0 °F /  9.4 °C 30.50 in /  1032.7 hPa Calm     94 % 0.00 in /  0 mm
01:23 50.7 °F /  10.4 °C 49.0 °F /  9.4 °C 30.49 in /  1032.4 hPa Calm     94 % 0.00 in /  0 mm
01:28 50.7 °F /  10.4 °C 49.0 °F /  9.4 °C 30.49 in /  1032.4 hPa Calm     94 % 0.00 in /  0 mm
01:33 50.7 °F /  10.4 °C 49.0 °F /  9.4 °C 30.49 in /  1032.4 hPa Calm     94 % 0.00 in /  0 mm
01:38 50.7 °F /  10.4 °C 49.0 °F /  9.4 °C 30.49 in /  1032.4 hPa Calm     94 % 0.00 in /  0 mm
01:43 50.6 °F /  10.3 °C 48.9 °F /  9.4 °C 30.49 in /  1032.4 hPa Calm     94 % 0.00 in /  0 mm
01:48 50.6 °F /  10.3 °C 48.9 °F /  9.4 °C 30.49 in /  1032.4 hPa WNW 0.2 mph /  0.3 km/h 1.0 mph /  1.6 km/h 94 % 0.00 in /  0 mm
01:53 50.6 °F /  10.3 °C 48.9 °F /  9.4 °C 30.49 in /  1032.4 hPa Calm   1.2 mph /  1.9 km/h 94 % 0.00 in /  0 mm
01:58 50.5 °F /  10.3 °C 48.8 °F /  9.3 °C 30.49 in /  1032.4 hPa Calm     94 % 0.00 in /  0 mm
02:03 50.5 °F /  10.3 °C 48.8 °F /  9.3 °C 30.48 in /  1032.1 hPa Calm   1.2 mph /  1.9 km/h 94 % 0.00 in /  0 mm
02:09 50.6 °F /  10.3 °C 48.9 °F /  9.4 °C 30.48 in /  1032.1 hPa Calm     94 % 0.00 in /  0 mm
02:14 50.7 °F /  10.4 °C 49.0 °F /  9.4 °C 30.48 in /  1032.1 hPa Calm   1.2 mph /  1.9 km/h 94 % 0.00 in /  0 mm
02:19 50.8 °F /  10.4 °C 49.4 °F /  9.7 °C 30.48 in /  1032.1 hPa Calm     95 % 0.00 in /  0 mm
02:24 50.9 °F /  10.5 °C 49.5 °F /  9.7 °C 30.48 in /  1032.1 hPa Calm   1.2 mph /  1.9 km/h 95 % 0.00 in /  0 mm
02:29 51.0 °F /  10.6 °C 49.6 °F /  9.8 °C 30.48 in /  1032.1 hPa Calm   1.2 mph /  1.9 km/h 95 % 0.00 in /  0 mm
02:34 51.1 °F /  10.6 °C 49.7 °F /  9.8 °C 30.48 in /  1032.1 hPa Calm     95 % 0.00 in /  0 mm
02:39 51.2 °F /  10.7 °C 49.8 °F /  9.9 °C 30.47 in /  1031.7 hPa WNW 0.6 mph /  1 km/h 1.2 mph /  1.9 km/h 95 % 0.00 in /  0 mm
02:44 51.4 °F /  10.8 °C 50.0 °F /  10 °C 30.47 in /  1031.7 hPa WSW 0.2 mph /  0.3 km/h 2.3 mph /  3.7 km/h 95 % 0.00 in /  0 mm
02:49 51.7 °F /  10.9 °C 50.6 °F /  10.3 °C 30.47 in /  1031.7 hPa Calm     96 % 0.00 in /  0 mm
02:54 51.8 °F /  11 °C 50.7 °F /  10.4 °C 30.47 in /  1031.7 hPa Calm     96 % 0.00 in /  0 mm
02:59 51.9 °F /  11.1 °C 50.8 °F /  10.4 °C 30.47 in /  1031.7 hPa Calm     96 % 0.00 in /  0 mm
03:05 52.0 °F /  11.1 °C 50.9 °F /  10.5 °C 30.47 in /  1031.7 hPa WSW 0.5 mph /  0.8 km/h   96 % 0.00 in /  0 mm
03:10 52.0 °F /  11.1 °C 50.9 °F /  10.5 °C 30.47 in /  1031.7 hPa Calm     96 % 0.00 in /  0 mm
03:20 52.1 °F /  11.2 °C 51.0 °F /  10.6 °C 30.47 in /  1031.7 hPa Calm   1.2 mph /  1.9 km/h 96 % 0.00 in /  0 mm
03:25 52.1 °F /  11.2 °C 51.0 °F /  10.6 °C 30.46 in /  1031.4 hPa Calm   1.2 mph /  1.9 km/h 96 % 0.00 in /  0 mm
03:30 52.1 °F /  11.2 °C 51.0 °F /  10.6 °C 30.46 in /  1031.4 hPa Calm     96 % 0.00 in /  0 mm
03:35 52.1 °F /  11.2 °C 51.0 °F /  10.6 °C 30.46 in /  1031.4 hPa Calm     96 % 0.00 in /  0 mm
03:40 52.1 °F /  11.2 °C 51.0 °F /  10.6 °C 30.46 in /  1031.4 hPa WSW 0.1 mph /  0.2 km/h 1.2 mph /  1.9 km/h 96 % 0.00 in /  0 mm
03:45 52.0 °F /  11.1 °C 50.9 °F /  10.5 °C 30.46 in /  1031.4 hPa Calm     96 % 0.00 in /  0 mm
03:50 52.0 °F /  11.1 °C 50.6 °F /  10.3 °C 30.46 in /  1031.4 hPa Calm     95 % 0.00 in /  0 mm
03:55 51.9 °F /  11.1 °C 50.5 °F /  10.3 °C 30.46 in /  1031.4 hPa Calm   1.0 mph /  1.6 km/h 95 % 0.00 in /  0 mm
04:00 51.9 °F /  11.1 °C 50.5 °F /  10.3 °C 30.46 in /  1031.4 hPa WSW 0.1 mph /  0.2 km/h 1.2 mph /  1.9 km/h 95 % 0.00 in /  0 mm
04:05 51.9 °F /  11.1 °C 50.5 °F /  10.3 °C 30.46 in /  1031.4 hPa Calm     95 % 0.00 in /  0 mm
04:10 51.9 °F /  11.1 °C 50.5 °F /  10.3 °C 30.46 in /  1031.4 hPa Calm   1.2 mph /  1.9 km/h 95 % 0.00 in /  0 mm
04:15 51.8 °F /  11 °C 50.4 °F /  10.2 °C 30.46 in /  1031.4 hPa WSW 0.2 mph /  0.3 km/h 1.2 mph /  1.9 km/h 95 % 0.00 in /  0 mm
04:20 51.8 °F /  11 °C 50.4 °F /  10.2 °C 30.46 in /  1031.4 hPa Calm   1.2 mph /  1.9 km/h 95 % 0.00 in /  0 mm
04:25 51.8 °F /  11 °C 50.4 °F /  10.2 °C 30.45 in /  1031 hPa WSW 0.5 mph /  0.8 km/h 1.2 mph /  1.9 km/h 95 % 0.00 in /  0 mm
04:30 51.8 °F /  11 °C 50.4 °F /  10.2 °C 30.45 in /  1031 hPa WSW 0.1 mph /  0.2 km/h 1.0 mph /  1.6 km/h 95 % 0.00 in /  0 mm
04:35 51.8 °F /  11 °C 50.4 °F /  10.2 °C 30.45 in /  1031 hPa Calm   1.2 mph /  1.9 km/h 95 % 0.00 in /  0 mm
04:40 51.8 °F /  11 °C 50.4 °F /  10.2 °C 30.45 in /  1031 hPa Calm     95 % 0.00 in /  0 mm
04:45 51.8 °F /  11 °C 50.4 °F /  10.2 °C 30.45 in /  1031 hPa WSW 1.3 mph /  2.1 km/h 4.6 mph /  7.4 km/h 95 % 0.00 in /  0 mm
04:46 51.8 °F /  11 °C 50.4 °F /  10.2 °C 30.45 in /  1031 hPa WSW 1.0 mph /  1.6 km/h 5.0 mph /  8 km/h 95 % 0.00 in /  0 mm
04:51 51.7 °F /  10.9 °C 50.4 °F /  10.2 °C 30.45 in /  1031 hPa Calm   1.0 mph /  1.6 km/h 95 % 0.00 in /  0 mm
05:01 51.7 °F /  10.9 °C 50.3 °F /  10.2 °C 30.45 in /  1031 hPa Calm     95 % 0.00 in /  0 mm
05:06 51.7 °F /  10.9 °C 50.3 °F /  10.2 °C 30.44 in /  1030.7 hPa Calm   1.2 mph /  1.9 km/h 95 % 0.00 in /  0 mm
05:11 51.7 °F /  10.9 °C 50.3 °F /  10.2 °C 30.45 in /  1031 hPa Calm   1.2 mph /  1.9 km/h 95 % 0.00 in /  0 mm
05:16 51.6 °F /  10.9 °C 50.2 °F /  10.1 °C 30.44 in /  1030.7 hPa Calm   1.2 mph /  1.9 km/h 95 % 0.00 in /  0 mm
05:21 51.6 °F /  10.9 °C 50.2 °F /  10.1 °C 30.45 in /  1031 hPa WSW 0.8 mph /  1.3 km/h 2.3 mph /  3.7 km/h 95 % 0.00 in /  0 mm
05:22 51.6 °F /  10.9 °C 50.2 °F /  10.1 °C 30.44 in /  1030.7 hPa WSW 0.1 mph /  0.2 km/h 2.3 mph /  3.7 km/h 95 % 0.00 in /  0 mm
05:27 51.5 °F /  10.8 °C 50.1 °F /  10.1 °C 30.44 in /  1030.7 hPa WSW 0.4 mph /  0.6 km/h 1.2 mph /  1.9 km/h 95 % 0.00 in /  0 mm
05:32 51.5 °F /  10.8 °C 50.1 °F /  10.1 °C 30.44 in /  1030.7 hPa WSW 0.2 mph /  0.3 km/h 1.2 mph /  1.9 km/h 95 % 0.00 in /  0 mm
05:37 51.4 °F /  10.8 °C 50.0 °F /  10 °C 30.44 in /  1030.7 hPa WSW 0.1 mph /  0.2 km/h 1.2 mph /  1.9 km/h 95 % 0.00 in /  0 mm
05:42 51.4 °F /  10.8 °C 50.0 °F /  10 °C 30.44 in /  1030.7 hPa WSW 0.5 mph /  0.8 km/h 2.3 mph /  3.7 km/h 95 % 0.00 in /  0 mm
05:47 51.4 °F /  10.8 °C 50.0 °F /  10 °C 30.44 in /  1030.7 hPa WSW 0.3 mph /  0.5 km/h 1.2 mph /  1.9 km/h 95 % 0.00 in /  0 mm
05:52 51.4 °F /  10.8 °C 50.0 °F /  10 °C 30.43 in /  1030.4 hPa WSW 1.2 mph /  1.9 km/h 2.3 mph /  3.7 km/h 95 % 0.00 in /  0 mm
05:57 51.4 °F /  10.8 °C 50.0 °F /  10 °C 30.44 in /  1030.7 hPa WSW 0.7 mph /  1.1 km/h 3.0 mph /  4.8 km/h 95 % 0.00 in /  0 mm
06:02 51.4 °F /  10.8 °C 50.0 °F /  10 °C 30.43 in /  1030.4 hPa SW 0.7 mph /  1.1 km/h 3.5 mph /  5.6 km/h 95 % 0.00 in /  0 mm
06:07 51.5 °F /  10.8 °C 50.4 °F /  10.2 °C 30.43 in /  1030.4 hPa SW 0.5 mph /  0.8 km/h 2.0 mph /  3.2 km/h 96 % 0.00 in /  0 mm
06:12 51.5 °F /  10.8 °C 50.4 °F /  10.2 °C 30.44 in /  1030.7 hPa SW 0.5 mph /  0.8 km/h 1.2 mph /  1.9 km/h 96 % 0.00 in /  0 mm
06:17 51.6 °F /  10.9 °C 50.5 °F /  10.3 °C 30.43 in /  1030.4 hPa SW 0.2 mph /  0.3 km/h 1.2 mph /  1.9 km/h 96 % 0.00 in /  0 mm
06:22 51.6 °F /  10.9 °C 50.5 °F /  10.3 °C 30.44 in /  1030.7 hPa Calm   1.2 mph /  1.9 km/h 96 % 0.00 in /  0 mm
06:27 51.5 °F /  10.8 °C 50.4 °F /  10.2 °C 30.44 in /  1030.7 hPa SW 0.1 mph /  0.2 km/h 1.2 mph /  1.9 km/h 96 % 0.00 in /  0 mm
06:32 51.6 °F /  10.9 °C 50.5 °F /  10.3 °C 30.43 in /  1030.4 hPa SW 0.7 mph /  1.1 km/h 2.3 mph /  3.7 km/h 96 % 0.00 in /  0 mm
06:38 51.6 °F /  10.9 °C 50.5 °F /  10.3 °C 30.44 in /  1030.7 hPa Calm   1.2 mph /  1.9 km/h 96 % 0.00 in /  0 mm
06:43 51.5 °F /  10.8 °C 50.4 °F /  10.2 °C 30.43 in /  1030.4 hPa Calm   1.2 mph /  1.9 km/h 96 % 0.00 in /  0 mm
06:48 51.5 °F /  10.8 °C 50.4 °F /  10.2 °C 30.44 in /  1030.7 hPa SW 1.2 mph /  1.9 km/h 2.3 mph /  3.7 km/h 96 % 0.00 in /  0 mm
06:53 51.5 °F /  10.8 °C 50.4 °F /  10.2 °C 30.44 in /  1030.7 hPa Calm   1.2 mph /  1.9 km/h 96 % 0.00 in /  0 mm
06:58 51.4 °F /  10.8 °C 50.0 °F /  10 °C 30.44 in /  1030.7 hPa Calm     95 % 0.00 in /  0 mm
07:03 51.4 °F /  10.8 °C 50.0 °F /  10 °C 30.43 in /  1030.4 hPa Calm     95 % 0.00 in /  0 mm
07:08 51.4 °F /  10.8 °C 50.0 °F /  10 °C 30.44 in /  1030.7 hPa Calm     95 % 0.00 in /  0 mm
07:13 51.3 °F /  10.7 °C 49.9 °F /  9.9 °C 30.43 in /  1030.4 hPa Calm     95 % 0.00 in /  0 mm
07:18 51.3 °F /  10.7 °C 49.9 °F /  9.9 °C 30.44 in /  1030.7 hPa Calm     95 % 0.00 in /  0 mm
07:22 51.3 °F /  10.7 °C 49.9 °F /  9.9 °C 30.43 in /  1030.4 hPa Calm   1.2 mph /  1.9 km/h 95 % 0.00 in /  0 mm
07:27 51.3 °F /  10.7 °C 49.9 °F /  9.9 °C 30.43 in /  1030.4 hPa Calm     95 % 0.00 in /  0 mm
07:32 51.4 °F /  10.8 °C 50.3 °F /  10.2 °C 30.43 in /  1030.4 hPa Calm     96 % 0.00 in /  0 mm
07:37 51.4 °F /  10.8 °C 50.3 °F /  10.2 °C 30.43 in /  1030.4 hPa Calm     96 % 0.00 in /  0 mm
07:42 51.5 °F /  10.8 °C 50.4 °F /  10.2 °C 30.43 in /  1030.4 hPa Calm     96 % 0.00 in /  0 mm
07:47 51.7 °F /  10.9 °C 50.6 °F /  10.3 °C 30.43 in /  1030.4 hPa Calm     96 % 0.00 in /  0 mm
07:52 51.9 °F /  11.1 °C 50.8 °F /  10.4 °C 30.43 in /  1030.4 hPa Calm   1.2 mph /  1.9 km/h 96 % 0.00 in /  0 mm
07:57 52.1 °F /  11.2 °C 51.0 °F /  10.6 °C 30.43 in /  1030.4 hPa SW 0.2 mph /  0.3 km/h 3.0 mph /  4.8 km/h 96 % 0.00 in /  0 mm
08:02 52.3 °F /  11.3 °C 51.2 °F /  10.7 °C 30.43 in /  1030.4 hPa Calm     96 % 0.00 in /  0 mm
08:07 52.7 °F /  11.5 °C 51.9 °F /  11.1 °C 30.43 in /  1030.4 hPa Calm   2.3 mph /  3.7 km/h 97 % 0.00 in /  0 mm
08:12 53.0 °F /  11.7 °C 52.2 °F /  11.2 °C 30.43 in /  1030.4 hPa SW 1.7 mph /  2.7 km/h 2.3 mph /  3.7 km/h 97 % 0.00 in /  0 mm
08:17 53.4 °F /  11.9 °C 52.6 °F /  11.4 °C 30.43 in /  1030.4 hPa WSW 1.8 mph /  2.9 km/h 4.0 mph /  6.4 km/h 97 % 0.00 in /  0 mm
08:22 54.0 °F /  12.2 °C 53.2 °F /  11.8 °C 30.43 in /  1030.4 hPa SSW 1.1 mph /  1.8 km/h 3.5 mph /  5.6 km/h 97 % 0.00 in /  0 mm
08:27 54.3 °F /  12.4 °C 53.5 °F /  11.9 °C 30.43 in /  1030.4 hPa SW 1.4 mph /  2.3 km/h 4.0 mph /  6.4 km/h 97 % 0.00 in /  0 mm
08:32 54.6 °F /  12.6 °C 53.8 °F /  12.1 °C 30.43 in /  1030.4 hPa WSW 1.5 mph /  2.4 km/h 3.5 mph /  5.6 km/h 97 % 0.00 in /  0 mm
08:38 54.8 °F /  12.7 °C 54.0 °F /  12.2 °C 30.43 in /  1030.4 hPa SSW 3.6 mph /  5.8 km/h 4.6 mph /  7.4 km/h 97 % 0.00 in /  0 mm
08:43 55.1 °F /  12.8 °C 54.3 °F /  12.4 °C 30.43 in /  1030.4 hPa SW 0.6 mph /  1 km/h 2.3 mph /  3.7 km/h 97 % 0.00 in /  0 mm
08:48 55.3 °F /  12.9 °C 54.5 °F /  12.5 °C 30.43 in /  1030.4 hPa SW 2.8 mph /  4.5 km/h 4.6 mph /  7.4 km/h 97 % 0.00 in /  0 mm
08:53 55.5 °F /  13.1 °C 54.7 °F /  12.6 °C 30.42 in /  1030 hPa SSW 2.0 mph /  3.2 km/h 3.5 mph /  5.6 km/h 97 % 0.00 in /  0 mm
08:58 55.7 °F /  13.2 °C 54.9 °F /  12.7 °C 30.42 in /  1030 hPa SSW 3.3 mph /  5.3 km/h 7.0 mph /  11.3 km/h 97 % 0.00 in /  0 mm
09:03 55.8 °F /  13.2 °C 55.0 °F /  12.8 °C 30.42 in /  1030 hPa SSW 2.2 mph /  3.5 km/h 3.5 mph /  5.6 km/h 97 % 0.00 in /  0 mm
09:08 56.0 °F /  13.3 °C 55.2 °F /  12.9 °C 30.42 in /  1030 hPa WSW 1.0 mph /  1.6 km/h 3.5 mph /  5.6 km/h 97 % 0.00 in /  0 mm
09:13 56.3 °F /  13.5 °C 55.5 °F /  13.1 °C 30.42 in /  1030 hPa SW 3.8 mph /  6.1 km/h 6.9 mph /  11.1 km/h 97 % 0.00 in /  0 mm
09:18 56.5 °F /  13.6 °C 55.7 °F /  13.2 °C 30.41 in /  1029.7 hPa West 2.0 mph /  3.2 km/h 5.8 mph /  9.3 km/h 97 % 0.00 in /  0 mm
09:23 56.8 °F /  13.8 °C 56.0 °F /  13.3 °C 30.42 in /  1030 hPa WSW 1.3 mph /  2.1 km/h 3.5 mph /  5.6 km/h 97 % 0.00 in /  0 mm
09:28 57.1 °F /  13.9 °C 56.3 °F /  13.5 °C 30.41 in /  1029.7 hPa WSW 1.7 mph /  2.7 km/h 3.5 mph /  5.6 km/h 97 % 0.00 in /  0 mm
09:33 57.5 °F /  14.2 °C 56.7 °F /  13.7 °C 30.41 in /  1029.7 hPa WSW 2.6 mph /  4.2 km/h 8.1 mph /  13 km/h 97 % 0.00 in /  0 mm
09:38 57.8 °F /  14.3 °C 57.0 °F /  13.9 °C 30.41 in /  1029.7 hPa SW 0.3 mph /  0.5 km/h 2.3 mph /  3.7 km/h 97 % 0.00 in /  0 mm
09:43 58.2 °F /  14.6 °C 57.1 °F /  13.9 °C 30.41 in /  1029.7 hPa SW 3.2 mph /  5.1 km/h 10.4 mph /  16.7 km/h 96 % 0.00 in /  0 mm
09:48 58.6 °F /  14.8 °C 57.5 °F /  14.2 °C 30.41 in /  1029.7 hPa WSW 2.3 mph /  3.7 km/h 9.2 mph /  14.8 km/h 96 % 0.00 in /  0 mm
09:53 59.0 °F /  15 °C 57.6 °F /  14.2 °C 30.41 in /  1029.7 hPa West 3.6 mph /  5.8 km/h 9.0 mph /  14.5 km/h 95 % 0.00 in /  0 mm
09:54 59.0 °F /  15 °C 57.6 °F /  14.2 °C 30.41 in /  1029.7 hPa SW 6.1 mph /  9.8 km/h 9.2 mph /  14.8 km/h 95 % 0.00 in /  0 mm
09:59 59.5 °F /  15.3 °C 57.8 °F /  14.3 °C 30.41 in /  1029.7 hPa SW 2.2 mph /  3.5 km/h 3.5 mph /  5.6 km/h 94 % 0.00 in /  0 mm
10:04 59.9 °F /  15.5 °C 57.9 °F /  14.4 °C 30.40 in /  1029.3 hPa SW 0.5 mph /  0.8 km/h 4.6 mph /  7.4 km/h 93 % 0.00 in /  0 mm
10:09 60.4 °F /  15.8 °C 58.1 °F /  14.5 °C 30.40 in /  1029.3 hPa West 0.3 mph /  0.5 km/h 3.5 mph /  5.6 km/h 92 % 0.00 in /  0 mm
10:12 60.7 °F /  15.9 °C 58.1 °F /  14.5 °C 30.40 in /  1029.3 hPa SSW 2.0 mph /  3.2 km/h 4.6 mph /  7.4 km/h 91 % 0.00 in /  0 mm
10:17 61.4 °F /  16.3 °C 58.4 °F /  14.7 °C 30.40 in /  1029.3 hPa SSW 1.1 mph /  1.8 km/h 3.5 mph /  5.6 km/h 90 % 0.00 in /  0 mm
10:22 62.1 °F /  16.7 °C 58.8 °F /  14.9 °C 30.40 in /  1029.3 hPa WNW 0.4 mph /  0.6 km/h 3.5 mph /  5.6 km/h 89 % 0.00 in /  0 mm
10:27 62.7 °F /  17.1 °C 58.8 °F /  14.9 °C 30.40 in /  1029.3 hPa SSW 2.1 mph /  3.4 km/h 5.0 mph /  8 km/h 87 % 0.00 in /  0 mm
10:28 62.8 °F /  17.1 °C 58.5 °F /  14.7 °C 30.40 in /  1029.3 hPa WSW 4.7 mph /  7.6 km/h 8.1 mph /  13 km/h 86 % 0.00 in /  0 mm
10:33 63.4 °F /  17.4 °C 58.8 °F /  14.9 °C 30.39 in /  1029 hPa WSW 1.6 mph /  2.6 km/h 4.0 mph /  6.4 km/h 85 % 0.00 in /  0 mm
10:43 64.2 °F /  17.9 °C 58.6 °F /  14.8 °C 30.38 in /  1028.7 hPa WSW 4.8 mph /  7.7 km/h 8.0 mph /  12.9 km/h 82 % 0.00 in /  0 mm
10:48 64.5 °F /  18.1 °C 58.2 °F /  14.6 °C 30.39 in /  1029 hPa West 4.7 mph /  7.6 km/h 11.5 mph /  18.5 km/h 80 % 0.00 in /  0 mm
10:53 64.9 °F /  18.3 °C 58.9 °F /  14.9 °C 30.38 in /  1028.7 hPa SW 3.3 mph /  5.3 km/h 6.0 mph /  9.7 km/h 81 % 0.00 in /  0 mm
10:59 65.4 °F /  18.6 °C 59.1 °F /  15.1 °C 30.38 in /  1028.7 hPa WSW 0.4 mph /  0.6 km/h 6.9 mph /  11.1 km/h 80 % 0.00 in /  0 mm
11:04 66.0 °F /  18.9 °C 59.7 °F /  15.4 °C 30.38 in /  1028.7 hPa WSW 1.9 mph /  3.1 km/h 4.6 mph /  7.4 km/h 80 % 0.00 in /  0 mm
11:09 67.0 °F /  19.4 °C 61.3 °F /  16.3 °C 30.37 in /  1028.3 hPa WSW 1.6 mph /  2.6 km/h 5.0 mph /  8 km/h 82 % 0.00 in /  0 mm
11:14 68.0 °F /  20 °C 59.4 °F /  15.2 °C 30.37 in /  1028.3 hPa WSW 3.6 mph /  5.8 km/h 9.2 mph /  14.8 km/h 74 % 0.00 in /  0 mm
11:19 68.9 °F /  20.5 °C 60.6 °F /  15.9 °C 30.37 in /  1028.3 hPa South 3.5 mph /  5.6 km/h 5.0 mph /  8 km/h 75 % 0.00 in /  0 mm
11:24 69.8 °F /  21 °C 60.4 °F /  15.8 °C 30.37 in /  1028.3 hPa WNW 2.0 mph /  3.2 km/h 4.6 mph /  7.4 km/h 72 % 0.00 in /  0 mm
11:29 70.6 °F /  21.4 °C 60.3 °F /  15.7 °C 30.37 in /  1028.3 hPa SW 7.0 mph /  11.3 km/h 11.5 mph /  18.5 km/h 70 % 0.00 in /  0 mm
11:34 71.2 °F /  21.8 °C 60.1 °F /  15.6 °C 30.37 in /  1028.3 hPa SSW 4.7 mph /  7.6 km/h 7.0 mph /  11.3 km/h 68 % 0.00 in /  0 mm
11:39 71.9 °F /  22.2 °C 60.3 °F /  15.7 °C 30.36 in /  1028 hPa SSW 3.1 mph /  5 km/h 8.1 mph /  13 km/h 67 % 0.00 in /  0 mm
11:44 72.5 °F /  22.5 °C 60.9 °F /  16.1 °C 30.36 in /  1028 hPa WSW 3.9 mph /  6.3 km/h 5.0 mph /  8 km/h 67 % 0.00 in /  0 mm
11:49 73.0 °F /  22.8 °C 60.5 °F /  15.8 °C 30.36 in /  1028 hPa SW 4.8 mph /  7.7 km/h 6.9 mph /  11.1 km/h 65 % 0.00 in /  0 mm
11:54 73.5 °F /  23.1 °C 61.0 °F /  16.1 °C 30.35 in /  1027.7 hPa SSW 3.7 mph /  6 km/h 3.7 mph /  6 km/h 65 % 0.00 in /  0 mm
11:59 74.0 °F /  23.3 °C 60.6 °F /  15.9 °C 30.35 in /  1027.7 hPa SW 4.3 mph /  6.9 km/h 9.2 mph /  14.8 km/h 63 % 0.00 in /  0 mm
12:04 74.5 °F /  23.6 °C 60.6 °F /  15.9 °C 30.35 in /  1027.7 hPa SW 5.0 mph /  8 km/h 5.8 mph /  9.3 km/h 62 % 0.00 in /  0 mm
12:10 74.8 °F /  23.8 °C 60.4 °F /  15.8 °C 30.35 in /  1027.7 hPa WSW 5.3 mph /  8.5 km/h 7.0 mph /  11.3 km/h 61 % 0.00 in /  0 mm
12:15 75.1 °F /  23.9 °C 60.3 °F /  15.7 °C 30.35 in /  1027.7 hPa West 5.1 mph /  8.2 km/h 11.5 mph /  18.5 km/h 60 % 0.00 in /  0 mm
12:20 75.2 °F /  24 °C 60.4 °F /  15.8 °C 30.34 in /  1027.3 hPa SSW 5.7 mph /  9.2 km/h 8.1 mph /  13 km/h 60 % 0.00 in /  0 mm
12:25 75.5 °F /  24.2 °C 60.6 °F /  15.9 °C 30.34 in /  1027.3 hPa SW 3.2 mph /  5.1 km/h 4.6 mph /  7.4 km/h 60 % 0.00 in /  0 mm
12:30 75.8 °F /  24.3 °C 60.4 °F /  15.8 °C 30.34 in /  1027.3 hPa WSW 2.3 mph /  3.7 km/h 4.6 mph /  7.4 km/h 59 % 0.00 in /  0 mm
12:35 76.2 °F /  24.6 °C 62.2 °F /  16.8 °C 30.34 in /  1027.3 hPa West 1.1 mph /  1.8 km/h 7.0 mph /  11.3 km/h 62 % 0.00 in /  0 mm
12:40 76.4 °F /  24.7 °C 61.0 °F /  16.1 °C 30.33 in /  1027 hPa SW 1.5 mph /  2.4 km/h 3.5 mph /  5.6 km/h 59 % 0.00 in /  0 mm
12:45 76.5 °F /  24.7 °C 60.6 °F /  15.9 °C 30.33 in /  1027 hPa WSW 3.2 mph /  5.1 km/h 6.9 mph /  11.1 km/h 58 % 0.00 in /  0 mm
12:50 76.8 °F /  24.9 °C 61.9 °F /  16.6 °C 30.33 in /  1027 hPa SSW 2.0 mph /  3.2 km/h 4.6 mph /  7.4 km/h 60 % 0.00 in /  0 mm
12:55 77.2 °F /  25.1 °C 62.7 °F /  17.1 °C 30.33 in /  1027 hPa West 2.8 mph /  4.5 km/h 5.8 mph /  9.3 km/h 61 % 0.00 in /  0 mm
13:00 77.5 °F /  25.3 °C 62.0 °F /  16.7 °C 30.32 in /  1026.6 hPa SW 4.6 mph /  7.4 km/h 10.4 mph /  16.7 km/h 59 % 0.00 in /  0 mm
13:05 77.6 °F /  25.3 °C 61.2 °F /  16.2 °C 30.31 in /  1026.3 hPa SSW 5.7 mph /  9.2 km/h 10.4 mph /  16.7 km/h 57 % 0.00 in /  0 mm
13:10 77.7 °F /  25.4 °C 61.7 °F /  16.5 °C 30.31 in /  1026.3 hPa SW 4.3 mph /  6.9 km/h 5.8 mph /  9.3 km/h 58 % 0.00 in /  0 mm
13:15 77.7 °F /  25.4 °C 61.3 °F /  16.3 °C 30.31 in /  1026.3 hPa SW 3.0 mph /  4.8 km/h 9.2 mph /  14.8 km/h 57 % 0.00 in /  0 mm
13:20 77.6 °F /  25.3 °C 61.2 °F /  16.2 °C 30.30 in /  1026 hPa SW 4.7 mph /  7.6 km/h 5.8 mph /  9.3 km/h 57 % 0.00 in /  0 mm
13:25 77.6 °F /  25.3 °C 62.6 °F /  17 °C 30.30 in /  1026 hPa SW 0.8 mph /  1.3 km/h 3.5 mph /  5.6 km/h 60 % 0.00 in /  0 mm
13:30 77.6 °F /  25.3 °C 60.7 °F /  15.9 °C 30.30 in /  1026 hPa SSW 5.3 mph /  8.5 km/h 10.4 mph /  16.7 km/h 56 % 0.00 in /  0 mm
13:35 77.7 °F /  25.4 °C 61.3 °F /  16.3 °C 30.30 in /  1026 hPa SSW 1.7 mph /  2.7 km/h 2.3 mph /  3.7 km/h 57 % 0.00 in /  0 mm
13:40 77.8 °F /  25.4 °C 60.8 °F /  16 °C 30.29 in /  1025.6 hPa SSW 1.2 mph /  1.9 km/h 6.9 mph /  11.1 km/h 56 % 0.00 in /  0 mm
13:45 78.0 °F /  25.6 °C 61.0 °F /  16.1 °C 30.29 in /  1025.6 hPa SSW 3.4 mph /  5.5 km/h 5.8 mph /  9.3 km/h 56 % 0.00 in /  0 mm
13:50 78.1 °F /  25.6 °C 62.1 °F /  16.7 °C 30.29 in /  1025.6 hPa SW 4.8 mph /  7.7 km/h 8.0 mph /  12.9 km/h 58 % 0.00 in /  0 mm
13:55 78.2 °F /  25.7 °C 60.7 °F /  15.9 °C 30.28 in /  1025.3 hPa SSW 1.5 mph /  2.4 km/h 11.5 mph /  18.5 km/h 55 % 0.00 in /  0 mm
14:00 78.4 °F /  25.8 °C 60.9 °F /  16.1 °C 30.28 in /  1025.3 hPa SW 3.9 mph /  6.3 km/h 5.8 mph /  9.3 km/h 55 % 0.00 in /  0 mm
14:04 78.3 °F /  25.7 °C 60.3 °F /  15.7 °C 30.28 in /  1025.3 hPa SSE 1.0 mph /  1.6 km/h 3.5 mph /  5.6 km/h 54 % 0.00 in /  0 mm
14:09 78.3 °F /  25.7 °C 60.3 °F /  15.7 °C 30.28 in /  1025.3 hPa SSE 3.1 mph /  5 km/h 6.9 mph /  11.1 km/h 54 % 0.00 in /  0 mm
14:14 78.3 °F /  25.7 °C 60.3 °F /  15.7 °C 30.27 in /  1024.9 hPa SSW 4.1 mph /  6.6 km/h 8.1 mph /  13 km/h 54 % 0.00 in /  0 mm
14:19 78.4 °F /  25.8 °C 61.4 °F /  16.3 °C 30.27 in /  1024.9 hPa WSW 3.1 mph /  5 km/h 5.8 mph /  9.3 km/h 56 % 0.00 in /  0 mm
14:24 78.4 °F /  25.8 °C 60.4 °F /  15.8 °C 30.27 in /  1024.9 hPa SSW 1.9 mph /  3.1 km/h 5.8 mph /  9.3 km/h 54 % 0.00 in /  0 mm
14:29 78.1 °F /  25.6 °C 61.6 °F /  16.4 °C 30.27 in /  1024.9 hPa WSW 0.9 mph /  1.4 km/h 4.6 mph /  7.4 km/h 57 % 0.00 in /  0 mm
14:34 77.9 °F /  25.5 °C 61.4 °F /  16.3 °C 30.26 in /  1024.6 hPa SSW 2.1 mph /  3.4 km/h 3.5 mph /  5.6 km/h 57 % 0.00 in /  0 mm
14:39 77.8 °F /  25.4 °C 60.8 °F /  16 °C 30.26 in /  1024.6 hPa SSW 4.0 mph /  6.4 km/h 8.1 mph /  13 km/h 56 % 0.00 in /  0 mm
14:44 77.5 °F /  25.3 °C 60.6 °F /  15.9 °C 30.25 in /  1024.3 hPa SSW 3.9 mph /  6.3 km/h 9.2 mph /  14.8 km/h 56 % 0.00 in /  0 mm
14:45 77.5 °F /  25.3 °C 61.1 °F /  16.2 °C 30.25 in /  1024.3 hPa SE 0.8 mph /  1.3 km/h 3.5 mph /  5.6 km/h 57 % 0.00 in /  0 mm
14:50 77.4 °F /  25.2 °C 62.4 °F /  16.9 °C 30.25 in /  1024.3 hPa SSW 0.6 mph /  1 km/h 2.3 mph /  3.7 km/h 60 % 0.00 in /  0 mm
14:55 77.3 °F /  25.2 °C 61.9 °F /  16.6 °C 30.25 in /  1024.3 hPa SSE 2.5 mph /  4 km/h 5.8 mph /  9.3 km/h 59 % 0.00 in /  0 mm
15:00 77.1 °F /  25.1 °C 60.7 °F /  15.9 °C 30.25 in /  1024.3 hPa SW 0.9 mph /  1.4 km/h 4.6 mph /  7.4 km/h 57 % 0.00 in /  0 mm
15:05 77.1 °F /  25.1 °C 61.2 °F /  16.2 °C 30.24 in /  1023.9 hPa SE 2.2 mph /  3.5 km/h 6.9 mph /  11.1 km/h 58 % 0.00 in /  0 mm
15:10 76.8 °F /  24.9 °C 60.9 °F /  16.1 °C 30.24 in /  1023.9 hPa SSW 0.8 mph /  1.3 km/h 5.8 mph /  9.3 km/h 58 % 0.00 in /  0 mm
15:15 76.3 °F /  24.6 °C 60.9 °F /  16.1 °C 30.24 in /  1023.9 hPa SSE 1.2 mph /  1.9 km/h 3.5 mph /  5.6 km/h 59 % 0.00 in /  0 mm
15:20 75.9 °F /  24.4 °C 61.5 °F /  16.4 °C 30.24 in /  1023.9 hPa SSW 1.5 mph /  2.4 km/h 3.5 mph /  5.6 km/h 61 % 0.00 in /  0 mm
15:25 75.5 °F /  24.2 °C 61.1 °F /  16.2 °C 30.24 in /  1023.9 hPa SSE 3.8 mph /  6.1 km/h 5.0 mph /  8 km/h 61 % 0.00 in /  0 mm
15:30 75.2 °F /  24 °C 61.3 °F /  16.3 °C 30.24 in /  1023.9 hPa SSW 4.1 mph /  6.6 km/h 6.9 mph /  11.1 km/h 62 % 0.00 in /  0 mm
15:35 75.0 °F /  23.9 °C 61.1 °F /  16.2 °C 30.24 in /  1023.9 hPa South 2.4 mph /  3.9 km/h 4.6 mph /  7.4 km/h 62 % 0.00 in /  0 mm
15:40 74.7 °F /  23.7 °C 61.3 °F /  16.3 °C 30.23 in /  1023.6 hPa SSW 2.8 mph /  4.5 km/h 5.0 mph /  8 km/h 63 % 0.00 in /  0 mm
15:45 74.4 °F /  23.6 °C 61.0 °F /  16.1 °C 30.23 in /  1023.6 hPa SW 6.2 mph /  10 km/h 7.0 mph /  11.3 km/h 63 % 0.00 in /  0 mm
15:50 74.1 °F /  23.4 °C 61.6 °F /  16.4 °C 30.23 in /  1023.6 hPa SSW 1.2 mph /  1.9 km/h 3.5 mph /  5.6 km/h 65 % 0.00 in /  0 mm
15:55 73.7 °F /  23.2 °C 60.8 °F /  16 °C 30.23 in /  1023.6 hPa SSW 1.8 mph /  2.9 km/h 6.0 mph /  9.7 km/h 64 % 0.00 in /  0 mm
16:00 73.4 °F /  23 °C 60.9 °F /  16.1 °C 30.22 in /  1023.2 hPa South 0.2 mph /  0.3 km/h 1.2 mph /  1.9 km/h 65 % 0.00 in /  0 mm
16:05 73.2 °F /  22.9 °C 61.2 °F /  16.2 °C 30.22 in /  1023.2 hPa SSW 3.6 mph /  5.8 km/h 5.8 mph /  9.3 km/h 66 % 0.00 in /  0 mm
16:10 73.0 °F /  22.8 °C 61.0 °F /  16.1 °C 30.22 in /  1023.2 hPa SSW 5.1 mph /  8.2 km/h 5.8 mph /  9.3 km/h 66 % 0.00 in /  0 mm
16:14 72.8 °F /  22.7 °C 60.8 °F /  16 °C 30.22 in /  1023.2 hPa South 1.0 mph /  1.6 km/h 3.0 mph /  4.8 km/h 66 % 0.00 in /  0 mm
16:19 72.5 °F /  22.5 °C 60.9 °F /  16.1 °C 30.22 in /  1023.2 hPa SSW 2.6 mph /  4.2 km/h 6.9 mph /  11.1 km/h 67 % 0.00 in /  0 mm
16:24 72.2 °F /  22.3 °C 60.2 °F /  15.7 °C 30.23 in /  1023.6 hPa SSE 1.0 mph /  1.6 km/h 2.3 mph /  3.7 km/h 66 % 0.00 in /  0 mm
16:29 72.0 °F /  22.2 °C 60.9 °F /  16.1 °C 30.22 in /  1023.2 hPa SSE 4.0 mph /  6.4 km/h 5.8 mph /  9.3 km/h 68 % 0.00 in /  0 mm
16:34 71.8 °F /  22.1 °C 60.7 °F /  15.9 °C 30.22 in /  1023.2 hPa SSW 0.5 mph /  0.8 km/h 3.5 mph /  5.6 km/h 68 % 0.00 in /  0 mm
16:39 71.6 °F /  22 °C 60.5 °F /  15.8 °C 30.22 in /  1023.2 hPa SSW 3.0 mph /  4.8 km/h 5.8 mph /  9.3 km/h 68 % 0.00 in /  0 mm
16:44 71.2 °F /  21.8 °C 60.5 °F /  15.8 °C 30.22 in /  1023.2 hPa SSW 0.6 mph /  1 km/h 3.5 mph /  5.6 km/h 69 % 0.00 in /  0 mm
16:49 70.9 °F /  21.6 °C 60.6 °F /  15.9 °C 30.21 in /  1022.9 hPa SE 1.3 mph /  2.1 km/h 3.5 mph /  5.6 km/h 70 % 0.00 in /  0 mm
16:54 70.6 °F /  21.4 °C 60.3 °F /  15.7 °C 30.21 in /  1022.9 hPa SW 1.6 mph /  2.6 km/h 3.0 mph /  4.8 km/h 70 % 0.00 in /  0 mm
16:59 70.4 °F /  21.3 °C 60.5 °F /  15.8 °C 30.21 in /  1022.9 hPa SW 0.9 mph /  1.4 km/h 3.5 mph /  5.6 km/h 71 % 0.00 in /  0 mm
17:05 70.3 °F /  21.3 °C 60.4 °F /  15.8 °C 30.21 in /  1022.9 hPa SW 0.8 mph /  1.3 km/h 3.5 mph /  5.6 km/h 71 % 0.00 in /  0 mm
17:10 70.1 °F /  21.2 °C 60.7 °F /  15.9 °C 30.21 in /  1022.9 hPa SSW 0.2 mph /  0.3 km/h 1.2 mph /  1.9 km/h 72 % 0.00 in /  0 mm
17:15 69.9 °F /  21.1 °C 60.5 °F /  15.8 °C 30.21 in /  1022.9 hPa South 0.4 mph /  0.6 km/h 1.2 mph /  1.9 km/h 72 % 0.00 in /  0 mm
17:25 69.6 °F /  20.9 °C 60.6 °F /  15.9 °C 30.21 in /  1022.9 hPa SSW 1.7 mph /  2.7 km/h 4.6 mph /  7.4 km/h 73 % 0.00 in /  0 mm
17:30 69.5 °F /  20.8 °C 60.5 °F /  15.8 °C 30.20 in /  1022.6 hPa South 1.6 mph /  2.6 km/h 3.5 mph /  5.6 km/h 73 % 0.00 in /  0 mm
17:35 69.3 °F /  20.7 °C 60.3 °F /  15.7 °C 30.20 in /  1022.6 hPa SW 0.1 mph /  0.2 km/h 2.3 mph /  3.7 km/h 73 % 0.00 in /  0 mm
17:40 69.0 °F /  20.6 °C 60.4 °F /  15.8 °C 30.19 in /  1022.2 hPa SSW 1.6 mph /  2.6 km/h 2.3 mph /  3.7 km/h 74 % 0.00 in /  0 mm
17:45 68.9 °F /  20.5 °C 60.3 °F /  15.7 °C 30.20 in /  1022.6 hPa SW 2.5 mph /  4 km/h 7.0 mph /  11.3 km/h 74 % 0.00 in /  0 mm
17:50 68.6 °F /  20.3 °C 60.0 °F /  15.6 °C 30.20 in /  1022.6 hPa SSW 1.1 mph /  1.8 km/h 3.5 mph /  5.6 km/h 74 % 0.00 in /  0 mm
17:56 68.4 °F /  20.2 °C 60.2 °F /  15.7 °C 30.20 in /  1022.6 hPa South 2.0 mph /  3.2 km/h 9.0 mph /  14.5 km/h 75 % 0.00 in /  0 mm
18:06 68.0 °F /  20 °C 60.2 °F /  15.7 °C 30.19 in /  1022.2 hPa SE 2.0 mph /  3.2 km/h 2.3 mph /  3.7 km/h 76 % 0.00 in /  0 mm
18:11 67.8 °F /  19.9 °C 60.0 °F /  15.6 °C 30.20 in /  1022.6 hPa South 1.0 mph /  1.6 km/h 5.0 mph /  8 km/h 76 % 0.00 in /  0 mm
18:16 67.6 °F /  19.8 °C 60.1 °F /  15.6 °C 30.20 in /  1022.6 hPa South 1.0 mph /  1.6 km/h 7.0 mph /  11.3 km/h 77 % 0.00 in /  0 mm
18:21 67.4 °F /  19.7 °C 60.3 °F /  15.7 °C 30.19 in /  1022.2 hPa WSW 0.5 mph /  0.8 km/h 2.3 mph /  3.7 km/h 78 % 0.00 in /  0 mm
18:26 67.3 °F /  19.6 °C 60.2 °F /  15.7 °C 30.20 in /  1022.6 hPa SW 1.0 mph /  1.6 km/h 5.0 mph /  8 km/h 78 % 0.00 in /  0 mm
18:31 67.1 °F /  19.5 °C 60.4 °F /  15.8 °C 30.19 in /  1022.2 hPa SSW 1.0 mph /  1.6 km/h 3.0 mph /  4.8 km/h 79 % 0.00 in /  0 mm
18:36 66.9 °F /  19.4 °C 60.5 °F /  15.8 °C 30.19 in /  1022.2 hPa Calm   12.0 mph /  19.3 km/h 80 % 0.00 in /  0 mm
18:41 66.7 °F /  19.3 °C 60.3 °F /  15.7 °C 30.19 in /  1022.2 hPa SSW 0.6 mph /  1 km/h 2.3 mph /  3.7 km/h 80 % 0.00 in /  0 mm
18:46 66.5 °F /  19.2 °C 60.1 °F /  15.6 °C 30.19 in /  1022.2 hPa SSW 1.0 mph /  1.6 km/h 4.0 mph /  6.4 km/h 80 % 0.00 in /  0 mm
18:51 66.3 °F /  19.1 °C 60.3 °F /  15.7 °C 30.19 in /  1022.2 hPa SSW 1.0 mph /  1.6 km/h 4.0 mph /  6.4 km/h 81 % 0.00 in /  0 mm
18:56 66.1 °F /  18.9 °C 60.4 °F /  15.8 °C 30.18 in /  1021.9 hPa South 1.2 mph /  1.9 km/h 2.3 mph /  3.7 km/h 82 % 0.00 in /  0 mm
19:06 65.7 °F /  18.7 °C 60.4 °F /  15.8 °C 30.18 in /  1021.9 hPa SSW 2.0 mph /  3.2 km/h 5.0 mph /  8 km/h 83 % 0.00 in /  0 mm
19:11 65.6 °F /  18.7 °C 60.3 °F /  15.7 °C 30.18 in /  1021.9 hPa SSW 1.0 mph /  1.6 km/h 4.0 mph /  6.4 km/h 83 % 0.00 in /  0 mm
19:16 65.4 °F /  18.6 °C 60.4 °F /  15.8 °C 30.18 in /  1021.9 hPa SSW 2.0 mph /  3.2 km/h 5.0 mph /  8 km/h 84 % 0.00 in /  0 mm
19:26 65.2 °F /  18.4 °C 60.6 °F /  15.9 °C 30.18 in /  1021.9 hPa SSW 1.0 mph /  1.6 km/h 4.0 mph /  6.4 km/h 85 % 0.00 in /  0 mm
19:31 65.1 °F /  18.4 °C 60.4 °F /  15.8 °C 30.18 in /  1021.9 hPa South 2.0 mph /  3.2 km/h 5.0 mph /  8 km/h 85 % 0.00 in /  0 mm
19:41 64.9 °F /  18.3 °C 60.6 °F /  15.9 °C 30.18 in /  1021.9 hPa South 2.0 mph /  3.2 km/h 4.0 mph /  6.4 km/h 86 % 0.00 in /  0 mm
19:46 64.8 °F /  18.2 °C 60.5 °F /  15.8 °C 30.18 in /  1021.9 hPa South 1.0 mph /  1.6 km/h 3.0 mph /  4.8 km/h 86 % 0.00 in /  0 mm
19:51 64.7 °F /  18.2 °C 60.7 °F /  15.9 °C 30.18 in /  1021.9 hPa South 1.0 mph /  1.6 km/h 2.0 mph /  3.2 km/h 87 % 0.00 in /  0 mm
19:56 64.6 °F /  18.1 °C 61.0 °F /  16.1 °C 30.19 in /  1022.2 hPa South 1.0 mph /  1.6 km/h 4.0 mph /  6.4 km/h 88 % 0.00 in /  0 mm
20:01 64.6 °F /  18.1 °C 61.0 °F /  16.1 °C 30.19 in /  1022.2 hPa Calm   1.2 mph /  1.9 km/h 88 % 0.00 in /  0 mm
20:06 64.5 °F /  18.1 °C 60.9 °F /  16.1 °C 30.18 in /  1021.9 hPa SSW 0.1 mph /  0.2 km/h 1.2 mph /  1.9 km/h 88 % 0.00 in /  0 mm
20:11 64.5 °F /  18.1 °C 61.2 °F /  16.2 °C 30.19 in /  1022.2 hPa South 2.0 mph /  3.2 km/h 3.5 mph /  5.6 km/h 89 % 0.00 in /  0 mm
20:16 64.4 °F /  18 °C 61.1 °F /  16.2 °C 30.18 in /  1021.9 hPa South 0.7 mph /  1.1 km/h 2.3 mph /  3.7 km/h 89 % 0.00 in /  0 mm
20:21 64.4 °F /  18 °C 61.1 °F /  16.2 °C 30.18 in /  1021.9 hPa South 1.4 mph /  2.3 km/h 3.5 mph /  5.6 km/h 89 % 0.00 in /  0 mm
20:26 64.4 °F /  18 °C 61.1 °F /  16.2 °C 30.18 in /  1021.9 hPa South 0.9 mph /  1.4 km/h 2.3 mph /  3.7 km/h 89 % 0.00 in /  0 mm
20:31 64.3 °F /  17.9 °C 61.0 °F /  16.1 °C 30.18 in /  1021.9 hPa SSW 0.1 mph /  0.2 km/h 1.2 mph /  1.9 km/h 89 % 0.00 in /  0 mm
20:36 64.3 °F /  17.9 °C 61.0 °F /  16.1 °C 30.18 in /  1021.9 hPa WSW 1.1 mph /  1.8 km/h 3.0 mph /  4.8 km/h 89 % 0.00 in /  0 mm
20:41 64.2 °F /  17.9 °C 60.9 °F /  16.1 °C 30.18 in /  1021.9 hPa SSE 0.7 mph /  1.1 km/h 2.3 mph /  3.7 km/h 89 % 0.00 in /  0 mm
20:46 64.2 °F /  17.9 °C 61.2 °F /  16.2 °C 30.18 in /  1021.9 hPa South 2.0 mph /  3.2 km/h 3.5 mph /  5.6 km/h 90 % 0.00 in /  0 mm
20:51 64.2 °F /  17.9 °C 61.2 °F /  16.2 °C 30.17 in /  1021.6 hPa SSW 1.6 mph /  2.6 km/h 3.5 mph /  5.6 km/h 90 % 0.00 in /  0 mm
20:56 64.1 °F /  17.8 °C 61.1 °F /  16.2 °C 30.18 in /  1021.9 hPa SSW 1.6 mph /  2.6 km/h 4.6 mph /  7.4 km/h 90 % 0.00 in /  0 mm
21:01 64.1 °F /  17.8 °C 61.1 °F /  16.2 °C 30.17 in /  1021.6 hPa SW 0.1 mph /  0.2 km/h 1.2 mph /  1.9 km/h 90 % 0.00 in /  0 mm
21:06 64.1 °F /  17.8 °C 61.1 °F /  16.2 °C 30.17 in /  1021.6 hPa SW 0.5 mph /  0.8 km/h 2.3 mph /  3.7 km/h 90 % 0.00 in /  0 mm
21:11 64.0 °F /  17.8 °C 61.0 °F /  16.1 °C 30.17 in /  1021.6 hPa SW 1.2 mph /  1.9 km/h 3.5 mph /  5.6 km/h 90 % 0.00 in /  0 mm
21:16 64.0 °F /  17.8 °C 61.0 °F /  16.1 °C 30.17 in /  1021.6 hPa South 0.3 mph /  0.5 km/h 1.2 mph /  1.9 km/h 90 % 0.00 in /  0 mm
21:21 64.0 °F /  17.8 °C 61.0 °F /  16.1 °C 30.16 in /  1021.2 hPa SSW 0.1 mph /  0.2 km/h 2.3 mph /  3.7 km/h 90 % 0.00 in /  0 mm
21:26 64.0 °F /  17.8 °C 61.3 °F /  16.3 °C 30.16 in /  1021.2 hPa SSW 1.5 mph /  2.4 km/h 3.5 mph /  5.6 km/h 91 % 0.00 in /  0 mm
21:31 63.9 °F /  17.7 °C 61.2 °F /  16.2 °C 30.16 in /  1021.2 hPa SW 0.9 mph /  1.4 km/h 2.3 mph /  3.7 km/h 91 % 0.00 in /  0 mm
21:36 63.9 °F /  17.7 °C 61.2 °F /  16.2 °C 30.16 in /  1021.2 hPa SSW 1.2 mph /  1.9 km/h 3.5 mph /  5.6 km/h 91 % 0.00 in /  0 mm
21:42 63.9 °F /  17.7 °C 61.2 °F /  16.2 °C 30.17 in /  1021.6 hPa South 1.8 mph /  2.9 km/h 5.8 mph /  9.3 km/h 91 % 0.00 in /  0 mm
21:47 64.0 °F /  17.8 °C 61.3 °F /  16.3 °C 30.16 in /  1021.2 hPa SSW 2.0 mph /  3.2 km/h 4.6 mph /  7.4 km/h 91 % 0.00 in /  0 mm
21:52 64.0 °F /  17.8 °C 61.3 °F /  16.3 °C 30.17 in /  1021.6 hPa SW 1.5 mph /  2.4 km/h 4.0 mph /  6.4 km/h 91 % 0.00 in /  0 mm
21:57 64.0 °F /  17.8 °C 61.3 °F /  16.3 °C 30.16 in /  1021.2 hPa South 2.9 mph /  4.7 km/h 4.6 mph /  7.4 km/h 91 % 0.00 in /  0 mm
22:02 64.0 °F /  17.8 °C 61.0 °F /  16.1 °C 30.16 in /  1021.2 hPa SW 1.5 mph /  2.4 km/h 4.6 mph /  7.4 km/h 90 % 0.00 in /  0 mm
22:07 64.0 °F /  17.8 °C 61.0 °F /  16.1 °C 30.16 in /  1021.2 hPa SSW 0.7 mph /  1.1 km/h 3.5 mph /  5.6 km/h 90 % 0.00 in /  0 mm
22:12 64.0 °F /  17.8 °C 61.0 °F /  16.1 °C 30.16 in /  1021.2 hPa SSW 1.4 mph /  2.3 km/h 3.5 mph /  5.6 km/h 90 % 0.00 in /  0 mm
22:15 64.1 °F /  17.8 °C 61.1 °F /  16.2 °C 30.16 in /  1021.2 hPa SW 2.3 mph /  3.7 km/h 3.5 mph /  5.6 km/h 90 % 0.00 in /  0 mm
22:20 64.1 °F /  17.8 °C 61.1 °F /  16.2 °C 30.16 in /  1021.2 hPa SW 1.3 mph /  2.1 km/h 4.6 mph /  7.4 km/h 90 % 0.00 in /  0 mm
22:25 64.1 °F /  17.8 °C 60.8 °F /  16 °C 30.16 in /  1021.2 hPa SSW 0.9 mph /  1.4 km/h 3.5 mph /  5.6 km/h 89 % 0.00 in /  0 mm
22:30 64.1 °F /  17.8 °C 60.8 °F /  16 °C 30.16 in /  1021.2 hPa SSW 0.3 mph /  0.5 km/h 3.5 mph /  5.6 km/h 89 % 0.00 in /  0 mm
22:40 64.1 °F /  17.8 °C 60.5 °F /  15.8 °C 30.16 in /  1021.2 hPa SSW 0.6 mph /  1 km/h 3.5 mph /  5.6 km/h 88 % 0.00 in /  0 mm
22:45 64.1 °F /  17.8 °C 60.5 °F /  15.8 °C 30.16 in /  1021.2 hPa SW 1.9 mph /  3.1 km/h 2.3 mph /  3.7 km/h 88 % 0.00 in /  0 mm
22:50 64.1 °F /  17.8 °C 60.5 °F /  15.8 °C 30.16 in /  1021.2 hPa SSE 1.9 mph /  3.1 km/h 3.5 mph /  5.6 km/h 88 % 0.00 in /  0 mm
22:55 64.1 °F /  17.8 °C 60.5 °F /  15.8 °C 30.16 in /  1021.2 hPa WSW 0.8 mph /  1.3 km/h 3.0 mph /  4.8 km/h 88 % 0.00 in /  0 mm
23:00 64.2 °F /  17.9 °C 60.6 °F /  15.9 °C 30.15 in /  1020.9 hPa SSW 1.7 mph /  2.7 km/h 4.6 mph /  7.4 km/h 88 % 0.00 in /  0 mm
23:11 64.2 °F /  17.9 °C 60.2 °F /  15.7 °C 30.14 in /  1020.5 hPa Calm   3.5 mph /  5.6 km/h 87 % 0.00 in /  0 mm
23:17 64.3 °F /  17.9 °C 60.3 °F /  15.7 °C 30.15 in /  1020.9 hPa SSE 1.4 mph /  2.3 km/h 4.0 mph /  6.4 km/h 87 % 0.00 in /  0 mm
23:22 64.3 °F /  17.9 °C 60.3 °F /  15.7 °C 30.03 in /  1016.8 hPa SW 0.1 mph /  0.2 km/h 3.5 mph /  5.6 km/h 87 % 0.00 in /  0 mm
23:24 64.4 °F /  18 °C 60.4 °F /  15.8 °C 30.03 in /  1016.8 hPa SW 2.0 mph /  3.2 km/h 3.5 mph /  5.6 km/h 87 % 0.00 in /  0 mm
23:27 64.4 °F /  18 °C 60.4 °F /  15.8 °C 30.15 in /  1020.9 hPa SW 1.0 mph /  1.6 km/h 4.0 mph /  6.4 km/h 87 % 0.00 in /  0 mm
23:32 64.4 °F /  18 °C 60.4 °F /  15.8 °C 30.15 in /  1020.9 hPa SW 3.2 mph /  5.1 km/h 9.2 mph /  14.8 km/h 87 % 0.00 in /  0 mm
23:37 64.4 °F /  18 °C 60.4 °F /  15.8 °C 30.15 in /  1020.9 hPa SSW 0.4 mph /  0.6 km/h 4.6 mph /  7.4 km/h 87 % 0.00 in /  0 mm
23:42 64.5 °F /  18.1 °C 60.2 °F /  15.7 °C 30.14 in /  1020.5 hPa Calm   1.2 mph /  1.9 km/h 86 % 0.00 in /  0 mm
23:47 64.5 °F /  18.1 °C 60.2 °F /  15.7 °C 30.15 in /  1020.9 hPa WSW 2.3 mph /  3.7 km/h 7.0 mph /  11.3 km/h 86 % 0.00 in /  0 mm
23:52 64.5 °F /  18.1 °C 60.2 °F /  15.7 °C 30.15 in /  1020.9 hPa South 0.9 mph /  1.4 km/h 6.9 mph /  11.1 km/h 86 % 0.00 in /  0 mm
23:57 64.5 °F /  18.1 °C 60.2 °F /  15.7 °C 30.15 in /  1020.9 hPa SSW 0.8 mph /  1.3 km/h 4.6 mph /  7.4 km/h 86 % 0.00 in /  0 mm
Crab Meadow Weather
Compliments of Weather Underground - 3 mb

Script developed by  Jim McMurry - jmcmurry@mwt.net Adapted for the template by  Wim van der Kuil - Leuven-Template.eu

Hurricanes: Hurricanes are classified into five categories, based on their wind speeds and potential to cause damage. * Category One -- Winds 74-95 miles per hour * Category Two -- Winds 96-110 miles per hour * Category Three -- Winds 111-130 miles per hour * Category Four -- Winds 131-155 miles per hour * Category Five -- Winds greater than 155 miles per hour.